sensor_id;sensor_type;location;lat;lon;timestamp;P1;durP1;ratioP1;P2;durP2;ratioP2
72920;SDS011;61064;51.654;5.476;2023-07-20T00:02:20;12.17;;;4.83;;
72920;SDS011;61064;51.654;5.476;2023-07-20T00:04:45;11.27;;;4.43;;
72920;SDS011;61064;51.654;5.476;2023-07-20T00:07:10;10.48;;;4.38;;
72920;SDS011;61064;51.654;5.476;2023-07-20T00:09:36;11.20;;;4.30;;
72920;SDS011;61064;51.654;5.476;2023-07-20T00:12:01;9.57;;;4.60;;
72920;SDS011;61064;51.654;5.476;2023-07-20T00:14:27;11.47;;;4.90;;
72920;SDS011;61064;51.654;5.476;2023-07-20T00:16:54;10.75;;;4.28;;
72920;SDS011;61064;51.654;5.476;2023-07-20T00:19:21;11.88;;;4.35;;
72920;SDS011;61064;51.654;5.476;2023-07-20T00:21:48;10.60;;;4.73;;
72920;SDS011;61064;51.654;5.476;2023-07-20T00:24:13;10.05;;;4.85;;
72920;SDS011;61064;51.654;5.476;2023-07-20T00:26:38;10.90;;;4.63;;
72920;SDS011;61064;51.654;5.476;2023-07-20T00:29:04;11.30;;;4.80;;
72920;SDS011;61064;51.654;5.476;2023-07-20T00:31:29;10.47;;;4.60;;
72920;SDS011;61064;51.654;5.476;2023-07-20T00:33:54;13.73;;;5.27;;
72920;SDS011;61064;51.654;5.476;2023-07-20T00:36:20;12.77;;;4.97;;
72920;SDS011;61064;51.654;5.476;2023-07-20T00:38:45;12.80;;;5.00;;
72920;SDS011;61064;51.654;5.476;2023-07-20T00:41:11;10.30;;;4.70;;
72920;SDS011;61064;51.654;5.476;2023-07-20T00:43:36;12.53;;;4.63;;
72920;SDS011;61064;51.654;5.476;2023-07-20T00:46:03;10.88;;;4.60;;
72920;SDS011;61064;51.654;5.476;2023-07-20T00:48:29;12.10;;;4.73;;
72920;SDS011;61064;51.654;5.476;2023-07-20T00:50:55;13.05;;;4.82;;
72920;SDS011;61064;51.654;5.476;2023-07-20T00:53:23;10.27;;;4.85;;
72920;SDS011;61064;51.654;5.476;2023-07-20T00:55:48;9.07;;;4.57;;
72920;SDS011;61064;51.654;5.476;2023-07-20T00:58:14;10.63;;;4.83;;
72920;SDS011;61064;51.654;5.476;2023-07-20T01:00:39;11.25;;;4.90;;
72920;SDS011;61064;51.654;5.476;2023-07-20T01:03:05;10.23;;;5.40;;
72920;SDS011;61064;51.654;5.476;2023-07-20T01:05:40;12.53;;;5.30;;
72920;SDS011;61064;51.654;5.476;2023-07-20T01:08:18;13.75;;;6.07;;
72920;SDS011;61064;51.654;5.476;2023-07-20T01:11:05;12.50;;;5.78;;
72920;SDS011;61064;51.654;5.476;2023-07-20T01:13:34;13.70;;;5.93;;
72920;SDS011;61064;51.654;5.476;2023-07-20T01:16:02;11.80;;;6.20;;
72920;SDS011;61064;51.654;5.476;2023-07-20T01:18:27;13.55;;;6.70;;
72920;SDS011;61064;51.654;5.476;2023-07-20T01:21:03;13.33;;;6.57;;
72920;SDS011;61064;51.654;5.476;2023-07-20T01:23:40;12.93;;;6.47;;
72920;SDS011;61064;51.654;5.476;2023-07-20T01:26:18;11.63;;;6.82;;
72920;SDS011;61064;51.654;5.476;2023-07-20T01:31:43;19.38;;;7.90;;
72920;SDS011;61064;51.654;5.476;2023-07-20T01:34:09;15.20;;;7.65;;
72920;SDS011;61064;51.654;5.476;2023-07-20T01:36:42;16.52;;;8.27;;
72920;SDS011;61064;51.654;5.476;2023-07-20T01:39:11;16.33;;;8.30;;
72920;SDS011;61064;51.654;5.476;2023-07-20T01:41:37;15.55;;;8.20;;
72920;SDS011;61064;51.654;5.476;2023-07-20T01:44:03;18.40;;;8.82;;
72920;SDS011;61064;51.654;5.476;2023-07-20T01:46:29;17.47;;;8.30;;
72920;SDS011;61064;51.654;5.476;2023-07-20T01:48:54;15.80;;;8.53;;
72920;SDS011;61064;51.654;5.476;2023-07-20T01:51:20;16.43;;;8.50;;
72920;SDS011;61064;51.654;5.476;2023-07-20T01:53:45;15.17;;;8.70;;
72920;SDS011;61064;51.654;5.476;2023-07-20T01:56:10;16.65;;;8.80;;
72920;SDS011;61064;51.654;5.476;2023-07-20T01:58:37;18.10;;;9.30;;
72920;SDS011;61064;51.654;5.476;2023-07-20T02:01:03;16.05;;;9.10;;
72920;SDS011;61064;51.654;5.476;2023-07-20T02:03:28;18.07;;;8.27;;
72920;SDS011;61064;51.654;5.476;2023-07-20T02:05:54;15.23;;;9.00;;
72920;SDS011;61064;51.654;5.476;2023-07-20T02:08:19;15.80;;;8.83;;
72920;SDS011;61064;51.654;5.476;2023-07-20T02:10:45;17.00;;;9.00;;
72920;SDS011;61064;51.654;5.476;2023-07-20T02:13:12;18.52;;;9.48;;
72920;SDS011;61064;51.654;5.476;2023-07-20T02:15:37;19.53;;;10.50;;
72920;SDS011;61064;51.654;5.476;2023-07-20T02:18:02;17.37;;;9.37;;
72920;SDS011;61064;51.654;5.476;2023-07-20T02:20:28;18.27;;;9.65;;
72920;SDS011;61064;51.654;5.476;2023-07-20T02:22:53;16.17;;;9.53;;
72920;SDS011;61064;51.654;5.476;2023-07-20T02:25:19;18.02;;;9.63;;
72920;SDS011;61064;51.654;5.476;2023-07-20T02:27:45;19.07;;;10.43;;
72920;SDS011;61064;51.654;5.476;2023-07-20T02:30:10;15.67;;;9.70;;
72920;SDS011;61064;51.654;5.476;2023-07-20T02:32:36;17.92;;;10.07;;
72920;SDS011;61064;51.654;5.476;2023-07-20T02:35:01;16.23;;;9.83;;
72920;SDS011;61064;51.654;5.476;2023-07-20T02:37:28;16.42;;;9.15;;
72920;SDS011;61064;51.654;5.476;2023-07-20T02:39:54;17.70;;;9.47;;
72920;SDS011;61064;51.654;5.476;2023-07-20T02:42:20;16.70;;;9.20;;
72920;SDS011;61064;51.654;5.476;2023-07-20T02:44:47;16.45;;;8.95;;
72920;SDS011;61064;51.654;5.476;2023-07-20T02:47:13;17.33;;;8.97;;
72920;SDS011;61064;51.654;5.476;2023-07-20T02:49:38;16.07;;;8.90;;
72920;SDS011;61064;51.654;5.476;2023-07-20T02:52:04;14.70;;;8.88;;
72920;SDS011;61064;51.654;5.476;2023-07-20T02:54:30;15.00;;;8.10;;
72920;SDS011;61064;51.654;5.476;2023-07-20T02:56:55;15.18;;;8.70;;
72920;SDS011;61064;51.654;5.476;2023-07-20T02:59:21;13.57;;;7.73;;
72920;SDS011;61064;51.654;5.476;2023-07-20T03:01:46;14.47;;;8.27;;
72920;SDS011;61064;51.654;5.476;2023-07-20T03:04:12;12.97;;;7.43;;
72920;SDS011;61064;51.654;5.476;2023-07-20T03:06:37;16.60;;;7.60;;
72920;SDS011;61064;51.654;5.476;2023-07-20T03:09:03;13.10;;;7.35;;
72920;SDS011;61064;51.654;5.476;2023-07-20T03:11:29;13.73;;;7.20;;
72920;SDS011;61064;51.654;5.476;2023-07-20T03:13:54;13.55;;;7.30;;
72920;SDS011;61064;51.654;5.476;2023-07-20T03:16:21;12.63;;;6.97;;
72920;SDS011;61064;51.654;5.476;2023-07-20T03:18:46;11.47;;;6.50;;
72920;SDS011;61064;51.654;5.476;2023-07-20T03:21:12;12.85;;;6.65;;
72920;SDS011;61064;51.654;5.476;2023-07-20T03:23:38;13.53;;;6.90;;
72920;SDS011;61064;51.654;5.476;2023-07-20T03:26:04;12.15;;;6.50;;
72920;SDS011;61064;51.654;5.476;2023-07-20T03:28:30;12.67;;;6.47;;
72920;SDS011;61064;51.654;5.476;2023-07-20T03:30:56;10.23;;;5.53;;
72920;SDS011;61064;51.654;5.476;2023-07-20T03:33:25;10.48;;;5.93;;
72920;SDS011;61064;51.654;5.476;2023-07-20T03:35:52;11.43;;;5.93;;
72920;SDS011;61064;51.654;5.476;2023-07-20T03:38:18;12.43;;;6.13;;
72920;SDS011;61064;51.654;5.476;2023-07-20T03:40:56;10.13;;;5.53;;
72920;SDS011;61064;51.654;5.476;2023-07-20T03:43:23;11.25;;;6.20;;
72920;SDS011;61064;51.654;5.476;2023-07-20T03:45:51;11.57;;;6.60;;
72920;SDS011;61064;51.654;5.476;2023-07-20T03:48:18;12.35;;;5.78;;
72920;SDS011;61064;51.654;5.476;2023-07-20T03:50:45;12.52;;;5.85;;
72920;SDS011;61064;51.654;5.476;2023-07-20T03:53:11;11.13;;;6.00;;
72920;SDS011;61064;51.654;5.476;2023-07-20T03:55:37;11.80;;;5.97;;
72920;SDS011;61064;51.654;5.476;2023-07-20T03:58:02;11.87;;;5.93;;
72920;SDS011;61064;51.654;5.476;2023-07-20T04:00:28;11.43;;;5.75;;
72920;SDS011;61064;51.654;5.476;2023-07-20T04:02:53;11.40;;;6.13;;
72920;SDS011;61064;51.654;5.476;2023-07-20T04:05:19;11.73;;;6.20;;
72920;SDS011;61064;51.654;5.476;2023-07-20T04:07:44;11.00;;;6.10;;
72920;SDS011;61064;51.654;5.476;2023-07-20T04:10:10;11.73;;;5.77;;
72920;SDS011;61064;51.654;5.476;2023-07-20T04:12:35;11.23;;;6.20;;
72920;SDS011;61064;51.654;5.476;2023-07-20T04:15:01;11.30;;;5.87;;
72920;SDS011;61064;51.654;5.476;2023-07-20T04:17:26;11.80;;;6.35;;
72920;SDS011;61064;51.654;5.476;2023-07-20T04:19:51;11.33;;;6.27;;
72920;SDS011;61064;51.654;5.476;2023-07-20T04:22:17;12.67;;;6.37;;
72920;SDS011;61064;51.654;5.476;2023-07-20T04:24:42;12.43;;;5.60;;
72920;SDS011;61064;51.654;5.476;2023-07-20T04:27:08;11.43;;;5.73;;
72920;SDS011;61064;51.654;5.476;2023-07-20T04:29:33;10.80;;;6.05;;
72920;SDS011;61064;51.654;5.476;2023-07-20T04:31:59;11.57;;;6.20;;
72920;SDS011;61064;51.654;5.476;2023-07-20T04:34:24;11.17;;;6.20;;
72920;SDS011;61064;51.654;5.476;2023-07-20T04:36:49;10.17;;;5.83;;
72920;SDS011;61064;51.654;5.476;2023-07-20T04:39:18;10.82;;;5.55;;
72920;SDS011;61064;51.654;5.476;2023-07-20T04:41:43;9.93;;;5.10;;
72920;SDS011;61064;51.654;5.476;2023-07-20T04:44:09;11.35;;;5.45;;
72920;SDS011;61064;51.654;5.476;2023-07-20T04:46:34;11.00;;;5.60;;
72920;SDS011;61064;51.654;5.476;2023-07-20T04:49:00;10.30;;;5.43;;
72920;SDS011;61064;51.654;5.476;2023-07-20T04:51:26;9.52;;;5.38;;
72920;SDS011;61064;51.654;5.476;2023-07-20T04:53:51;10.63;;;6.13;;
72920;SDS011;61064;51.654;5.476;2023-07-20T04:56:17;11.80;;;5.80;;
72920;SDS011;61064;51.654;5.476;2023-07-20T04:58:42;11.07;;;5.67;;
72920;SDS011;61064;51.654;5.476;2023-07-20T05:01:08;12.02;;;5.35;;
72920;SDS011;61064;51.654;5.476;2023-07-20T05:03:33;12.03;;;5.33;;
72920;SDS011;61064;51.654;5.476;2023-07-20T05:05:59;11.83;;;5.13;;
72920;SDS011;61064;51.654;5.476;2023-07-20T05:08:24;10.82;;;5.85;;
72920;SDS011;61064;51.654;5.476;2023-07-20T05:10:50;10.90;;;5.90;;
72920;SDS011;61064;51.654;5.476;2023-07-20T05:13:16;12.27;;;5.57;;
72920;SDS011;61064;51.654;5.476;2023-07-20T05:15:41;11.63;;;5.23;;
72920;SDS011;61064;51.654;5.476;2023-07-20T05:18:06;11.60;;;5.67;;
72920;SDS011;61064;51.654;5.476;2023-07-20T05:20:33;10.25;;;5.80;;
72920;SDS011;61064;51.654;5.476;2023-07-20T05:22:59;13.50;;;6.77;;
72920;SDS011;61064;51.654;5.476;2023-07-20T05:25:25;11.00;;;5.80;;
72920;SDS011;61064;51.654;5.476;2023-07-20T05:27:51;12.27;;;6.70;;
72920;SDS011;61064;51.654;5.476;2023-07-20T05:30:17;11.77;;;6.15;;
72920;SDS011;61064;51.654;5.476;2023-07-20T05:32:43;11.80;;;6.40;;
72920;SDS011;61064;51.654;5.476;2023-07-20T05:35:12;11.53;;;5.93;;
72920;SDS011;61064;51.654;5.476;2023-07-20T05:37:39;11.52;;;6.32;;
72920;SDS011;61064;51.654;5.476;2023-07-20T05:40:05;11.00;;;6.25;;
72920;SDS011;61064;51.654;5.476;2023-07-20T05:42:31;13.37;;;6.80;;
72920;SDS011;61064;51.654;5.476;2023-07-20T05:44:56;12.85;;;6.90;;
72920;SDS011;61064;51.654;5.476;2023-07-20T05:47:22;12.60;;;6.60;;
72920;SDS011;61064;51.654;5.476;2023-07-20T05:49:47;13.23;;;6.80;;
72920;SDS011;61064;51.654;5.476;2023-07-20T05:52:13;10.83;;;6.40;;
72920;SDS011;61064;51.654;5.476;2023-07-20T05:54:38;11.85;;;6.82;;
72920;SDS011;61064;51.654;5.476;2023-07-20T05:57:04;12.07;;;6.60;;
72920;SDS011;61064;51.654;5.476;2023-07-20T05:59:29;13.63;;;7.17;;
72920;SDS011;61064;51.654;5.476;2023-07-20T06:01:55;12.88;;;6.80;;
72920;SDS011;61064;51.654;5.476;2023-07-20T06:04:20;13.33;;;7.40;;
72920;SDS011;61064;51.654;5.476;2023-07-20T06:06:45;14.53;;;7.20;;
72920;SDS011;61064;51.654;5.476;2023-07-20T06:09:11;12.52;;;7.13;;
72920;SDS011;61064;51.654;5.476;2023-07-20T06:11:37;11.73;;;6.93;;
72920;SDS011;61064;51.654;5.476;2023-07-20T06:14:03;11.80;;;6.65;;
72920;SDS011;61064;51.654;5.476;2023-07-20T06:16:29;12.50;;;7.40;;
72920;SDS011;61064;51.654;5.476;2023-07-20T06:18:54;13.43;;;7.00;;
72920;SDS011;61064;51.654;5.476;2023-07-20T06:21:20;12.98;;;6.57;;
72920;SDS011;61064;51.654;5.476;2023-07-20T06:23:45;12.17;;;6.63;;
72920;SDS011;61064;51.654;5.476;2023-07-20T06:26:11;13.33;;;6.50;;
72920;SDS011;61064;51.654;5.476;2023-07-20T06:28:36;11.05;;;6.32;;
72920;SDS011;61064;51.654;5.476;2023-07-20T06:31:02;10.33;;;6.30;;
72920;SDS011;61064;51.654;5.476;2023-07-20T06:33:28;11.02;;;6.35;;
72920;SDS011;61064;51.654;5.476;2023-07-20T06:35:54;10.70;;;6.13;;
72920;SDS011;61064;51.654;5.476;2023-07-20T06:38:19;11.07;;;5.97;;
72920;SDS011;61064;51.654;5.476;2023-07-20T06:40:46;10.82;;;6.28;;
72920;SDS011;61064;51.654;5.476;2023-07-20T06:43:12;11.77;;;6.38;;
72920;SDS011;61064;51.654;5.476;2023-07-20T06:45:37;10.70;;;6.40;;
72920;SDS011;61064;51.654;5.476;2023-07-20T06:48:03;11.40;;;5.97;;
72920;SDS011;61064;51.654;5.476;2023-07-20T06:50:28;12.53;;;5.70;;
72920;SDS011;61064;51.654;5.476;2023-07-20T06:52:56;8.57;;;4.90;;
72920;SDS011;61064;51.654;5.476;2023-07-20T06:55:23;9.98;;;5.15;;
72920;SDS011;61064;51.654;5.476;2023-07-20T06:57:49;10.37;;;4.30;;
72920;SDS011;61064;51.654;5.476;2023-07-20T07:00:14;9.20;;;4.43;;
72920;SDS011;61064;51.654;5.476;2023-07-20T07:02:40;9.03;;;3.67;;
72920;SDS011;61064;51.654;5.476;2023-07-20T07:05:05;7.53;;;3.50;;
72920;SDS011;61064;51.654;5.476;2023-07-20T07:07:31;9.02;;;4.13;;
72920;SDS011;61064;51.654;5.476;2023-07-20T07:09:57;8.50;;;3.70;;
72920;SDS011;61064;51.654;5.476;2023-07-20T07:12:24;8.30;;;3.60;;
72920;SDS011;61064;51.654;5.476;2023-07-20T07:14:49;8.85;;;3.60;;
72920;SDS011;61064;51.654;5.476;2023-07-20T07:17:14;7.40;;;3.70;;
72920;SDS011;61064;51.654;5.476;2023-07-20T07:19:40;7.60;;;3.67;;
72920;SDS011;61064;51.654;5.476;2023-07-20T07:22:05;7.87;;;3.80;;
72920;SDS011;61064;51.654;5.476;2023-07-20T07:24:31;7.90;;;3.83;;
72920;SDS011;61064;51.654;5.476;2023-07-20T07:27:01;7.30;;;3.30;;
72920;SDS011;61064;51.654;5.476;2023-07-20T07:29:28;7.03;;;3.50;;
72920;SDS011;61064;51.654;5.476;2023-07-20T07:31:54;7.35;;;3.05;;
72920;SDS011;61064;51.654;5.476;2023-07-20T07:34:19;8.73;;;2.90;;
72920;SDS011;61064;51.654;5.476;2023-07-20T07:36:45;6.87;;;3.07;;
72920;SDS011;61064;51.654;5.476;2023-07-20T07:39:10;7.00;;;2.80;;
72920;SDS011;61064;51.654;5.476;2023-07-20T07:41:36;5.90;;;2.60;;
72920;SDS011;61064;51.654;5.476;2023-07-20T07:44:01;6.57;;;2.07;;
72920;SDS011;61064;51.654;5.476;2023-07-20T07:46:26;7.23;;;1.90;;
72920;SDS011;61064;51.654;5.476;2023-07-20T07:48:52;5.80;;;1.63;;
72920;SDS011;61064;51.654;5.476;2023-07-20T07:51:18;5.78;;;2.00;;
72920;SDS011;61064;51.654;5.476;2023-07-20T07:53:44;5.20;;;1.90;;
72920;SDS011;61064;51.654;5.476;2023-07-20T07:56:11;5.80;;;1.80;;
72920;SDS011;61064;51.654;5.476;2023-07-20T07:58:36;5.15;;;1.85;;
72920;SDS011;61064;51.654;5.476;2023-07-20T08:01:02;4.90;;;1.43;;
72920;SDS011;61064;51.654;5.476;2023-07-20T08:03:27;6.03;;;1.70;;
72920;SDS011;61064;51.654;5.476;2023-07-20T08:05:56;4.20;;;1.40;;
72920;SDS011;61064;51.654;5.476;2023-07-20T08:08:22;5.25;;;1.40;;
72920;SDS011;61064;51.654;5.476;2023-07-20T08:10:48;3.93;;;0.90;;
72920;SDS011;61064;51.654;5.476;2023-07-20T08:13:13;5.32;;;1.10;;
72920;SDS011;61064;51.654;5.476;2023-07-20T08:15:39;3.47;;;1.07;;
72920;SDS011;61064;51.654;5.476;2023-07-20T08:18:05;3.75;;;1.00;;
72920;SDS011;61064;51.654;5.476;2023-07-20T08:20:31;3.88;;;0.98;;
72920;SDS011;61064;51.654;5.476;2023-07-20T08:22:57;3.70;;;1.20;;
72920;SDS011;61064;51.654;5.476;2023-07-20T08:25:24;3.58;;;1.02;;
72920;SDS011;61064;51.654;5.476;2023-07-20T08:27:50;4.30;;;0.95;;
72920;SDS011;61064;51.654;5.476;2023-07-20T08:30:15;3.47;;;0.93;;
72920;SDS011;61064;51.654;5.476;2023-07-20T08:32:41;3.40;;;1.00;;
72920;SDS011;61064;51.654;5.476;2023-07-20T08:35:06;5.20;;;1.40;;
72920;SDS011;61064;51.654;5.476;2023-07-20T08:37:32;4.60;;;1.30;;
72920;SDS011;61064;51.654;5.476;2023-07-20T08:39:57;6.47;;;1.60;;
72920;SDS011;61064;51.654;5.476;2023-07-20T08:42:22;6.07;;;1.57;;
72920;SDS011;61064;51.654;5.476;2023-07-20T08:44:48;5.93;;;1.80;;
72920;SDS011;61064;51.654;5.476;2023-07-20T08:47:16;4.53;;;1.33;;
72920;SDS011;61064;51.654;5.476;2023-07-20T08:49:42;4.35;;;1.40;;
72920;SDS011;61064;51.654;5.476;2023-07-20T08:52:07;5.27;;;1.60;;
72920;SDS011;61064;51.654;5.476;2023-07-20T08:54:33;4.25;;;1.35;;
72920;SDS011;61064;51.654;5.476;2023-07-20T08:57:03;6.20;;;1.23;;
72920;SDS011;61064;51.654;5.476;2023-07-20T08:59:30;5.10;;;1.20;;
72920;SDS011;61064;51.654;5.476;2023-07-20T09:01:59;4.93;;;1.20;;
72920;SDS011;61064;51.654;5.476;2023-07-20T09:04:25;4.30;;;1.15;;
72920;SDS011;61064;51.654;5.476;2023-07-20T09:06:51;5.18;;;1.38;;
72920;SDS011;61064;51.654;5.476;2023-07-20T09:09:17;4.73;;;1.20;;
72920;SDS011;61064;51.654;5.476;2023-07-20T09:11:42;4.22;;;1.35;;
72920;SDS011;61064;51.654;5.476;2023-07-20T09:14:11;4.45;;;1.27;;
72920;SDS011;61064;51.654;5.476;2023-07-20T09:16:52;5.17;;;0.97;;
72920;SDS011;61064;51.654;5.476;2023-07-20T09:19:19;3.53;;;1.13;;
72920;SDS011;61064;51.654;5.476;2023-07-20T09:21:46;3.28;;;0.80;;
72920;SDS011;61064;51.654;5.476;2023-07-20T09:24:13;5.20;;;1.10;;
72920;SDS011;61064;51.654;5.476;2023-07-20T09:26:42;3.97;;;1.10;;
72920;SDS011;61064;51.654;5.476;2023-07-20T09:29:09;5.60;;;1.10;;
72920;SDS011;61064;51.654;5.476;2023-07-20T09:31:36;5.03;;;1.25;;
72920;SDS011;61064;51.654;5.476;2023-07-20T09:34:01;4.87;;;1.20;;
72920;SDS011;61064;51.654;5.476;2023-07-20T09:36:28;4.78;;;1.15;;
72920;SDS011;61064;51.654;5.476;2023-07-20T09:38:53;4.47;;;1.20;;
72920;SDS011;61064;51.654;5.476;2023-07-20T09:41:19;4.63;;;1.20;;
72920;SDS011;61064;51.654;5.476;2023-07-20T09:43:45;5.53;;;1.15;;
72920;SDS011;61064;51.654;5.476;2023-07-20T09:46:11;4.05;;;1.02;;
72920;SDS011;61064;51.654;5.476;2023-07-20T09:48:36;3.43;;;1.20;;
72920;SDS011;61064;51.654;5.476;2023-07-20T09:51:02;3.97;;;1.00;;
72920;SDS011;61064;51.654;5.476;2023-07-20T09:53:30;3.22;;;1.00;;
72920;SDS011;61064;51.654;5.476;2023-07-20T09:55:57;5.15;;;1.15;;
72920;SDS011;61064;51.654;5.476;2023-07-20T09:58:23;5.43;;;1.17;;
72920;SDS011;61064;51.654;5.476;2023-07-20T10:01:03;3.97;;;1.00;;
72920;SDS011;61064;51.654;5.476;2023-07-20T10:03:37;3.97;;;0.90;;
72920;SDS011;61064;51.654;5.476;2023-07-20T10:06:05;5.40;;;1.20;;
72920;SDS011;61064;51.654;5.476;2023-07-20T10:08:39;5.88;;;1.33;;
72920;SDS011;61064;51.654;5.476;2023-07-20T10:11:07;5.40;;;1.02;;
72920;SDS011;61064;51.654;5.476;2023-07-20T10:13:35;3.40;;;0.80;;
72920;SDS011;61064;51.654;5.476;2023-07-20T10:16:03;3.30;;;0.90;;
72920;SDS011;61064;51.654;5.476;2023-07-20T10:18:38;4.05;;;0.80;;
72920;SDS011;61064;51.654;5.476;2023-07-20T10:21:11;3.63;;;0.90;;
72920;SDS011;61064;51.654;5.476;2023-07-20T10:23:38;2.95;;;0.73;;
72920;SDS011;61064;51.654;5.476;2023-07-20T10:26:04;3.83;;;0.75;;
72920;SDS011;61064;51.654;5.476;2023-07-20T10:28:30;3.60;;;0.73;;
72920;SDS011;61064;51.654;5.476;2023-07-20T10:30:56;4.45;;;0.70;;
72920;SDS011;61064;51.654;5.476;2023-07-20T10:33:22;3.10;;;0.90;;
72920;SDS011;61064;51.654;5.476;2023-07-20T10:38:19;3.33;;;0.70;;
72920;SDS011;61064;51.654;5.476;2023-07-20T10:40:53;4.70;;;1.08;;
72920;SDS011;61064;51.654;5.476;2023-07-20T10:43:23;3.07;;;0.70;;
72920;SDS011;61064;51.654;5.476;2023-07-20T10:45:49;2.80;;;0.70;;
72920;SDS011;61064;51.654;5.476;2023-07-20T10:48:19;3.08;;;0.80;;
72920;SDS011;61064;51.654;5.476;2023-07-20T10:50:48;4.13;;;0.80;;
72920;SDS011;61064;51.654;5.476;2023-07-20T10:54:02;2.67;;;0.60;;
72920;SDS011;61064;51.654;5.476;2023-07-20T10:56:27;2.40;;;0.50;;
72920;SDS011;61064;51.654;5.476;2023-07-20T10:58:59;2.95;;;0.70;;
72920;SDS011;61064;51.654;5.476;2023-07-20T11:01:28;3.13;;;0.80;;
72920;SDS011;61064;51.654;5.476;2023-07-20T11:03:57;3.92;;;0.70;;
72920;SDS011;61064;51.654;5.476;2023-07-20T11:09:10;2.63;;;0.73;;
72920;SDS011;61064;51.654;5.476;2023-07-20T11:11:48;3.72;;;0.82;;
72920;SDS011;61064;51.654;5.476;2023-07-20T11:14:20;3.33;;;0.70;;
72920;SDS011;61064;51.654;5.476;2023-07-20T11:16:48;5.03;;;1.05;;
72920;SDS011;61064;51.654;5.476;2023-07-20T11:19:25;2.93;;;0.70;;
72920;SDS011;61064;51.654;5.476;2023-07-20T11:21:53;3.15;;;0.77;;
72920;SDS011;61064;51.654;5.476;2023-07-20T11:24:24;4.10;;;0.88;;
72920;SDS011;61064;51.654;5.476;2023-07-20T11:26:50;4.13;;;1.20;;
72920;SDS011;61064;51.654;5.476;2023-07-20T11:29:18;4.80;;;1.35;;
72920;SDS011;61064;51.654;5.476;2023-07-20T11:31:46;4.85;;;1.20;;
72920;SDS011;61064;51.654;5.476;2023-07-20T11:34:16;5.22;;;1.10;;
72920;SDS011;61064;51.654;5.476;2023-07-20T11:36:43;4.27;;;1.00;;
72920;SDS011;61064;51.654;5.476;2023-07-20T11:39:11;4.57;;;1.10;;
72920;SDS011;61064;51.654;5.476;2023-07-20T11:41:50;5.20;;;1.35;;
72920;SDS011;61064;51.654;5.476;2023-07-20T11:44:20;4.15;;;1.10;;
72920;SDS011;61064;51.654;5.476;2023-07-20T11:47:02;4.35;;;1.35;;
72920;SDS011;61064;51.654;5.476;2023-07-20T11:49:37;4.27;;;1.17;;
72920;SDS011;61064;51.654;5.476;2023-07-20T11:52:07;4.25;;;1.08;;
72920;SDS011;61064;51.654;5.476;2023-07-20T11:54:40;3.85;;;1.20;;
72920;SDS011;61064;51.654;5.476;2023-07-20T11:57:06;4.72;;;1.33;;
72920;SDS011;61064;51.654;5.476;2023-07-20T11:59:32;4.73;;;1.40;;
72920;SDS011;61064;51.654;5.476;2023-07-20T12:01:58;4.20;;;1.30;;
72920;SDS011;61064;51.654;5.476;2023-07-20T12:04:27;3.97;;;1.05;;
72920;SDS011;61064;51.654;5.476;2023-07-20T12:06:53;4.07;;;1.00;;
72920;SDS011;61064;51.654;5.476;2023-07-20T12:09:20;3.60;;;0.93;;
72920;SDS011;61064;51.654;5.476;2023-07-20T12:11:48;4.70;;;1.13;;
72920;SDS011;61064;51.654;5.476;2023-07-20T12:14:14;3.40;;;1.05;;
72920;SDS011;61064;51.654;5.476;2023-07-20T12:16:39;4.50;;;1.20;;
72920;SDS011;61064;51.654;5.476;2023-07-20T12:19:09;3.80;;;1.00;;
72920;SDS011;61064;51.654;5.476;2023-07-20T12:21:36;3.60;;;1.00;;
72920;SDS011;61064;51.654;5.476;2023-07-20T12:24:03;5.82;;;1.10;;
72920;SDS011;61064;51.654;5.476;2023-07-20T12:26:30;4.05;;;1.00;;
72920;SDS011;61064;51.654;5.476;2023-07-20T12:28:56;3.17;;;0.90;;
72920;SDS011;61064;51.654;5.476;2023-07-20T12:31:23;3.92;;;1.00;;
72920;SDS011;61064;51.654;5.476;2023-07-20T12:33:52;3.60;;;0.82;;
72920;SDS011;61064;51.654;5.476;2023-07-20T12:36:18;4.05;;;0.90;;
72920;SDS011;61064;51.654;5.476;2023-07-20T12:38:44;3.93;;;0.93;;
72920;SDS011;61064;51.654;5.476;2023-07-20T12:41:10;3.28;;;1.10;;
72920;SDS011;61064;51.654;5.476;2023-07-20T12:43:40;3.92;;;1.10;;
72920;SDS011;61064;51.654;5.476;2023-07-20T12:46:07;2.97;;;0.95;;
72920;SDS011;61064;51.654;5.476;2023-07-20T12:48:32;3.30;;;1.00;;
72920;SDS011;61064;51.654;5.476;2023-07-20T12:50:58;5.27;;;1.00;;
72920;SDS011;61064;51.654;5.476;2023-07-20T12:53:23;4.10;;;1.00;;
72920;SDS011;61064;51.654;5.476;2023-07-20T12:55:49;3.87;;;0.90;;
72920;SDS011;61064;51.654;5.476;2023-07-20T12:58:14;3.20;;;0.90;;
72920;SDS011;61064;51.654;5.476;2023-07-20T13:00:40;5.00;;;0.90;;
72920;SDS011;61064;51.654;5.476;2023-07-20T13:03:06;3.77;;;0.90;;
72920;SDS011;61064;51.654;5.476;2023-07-20T13:05:33;3.50;;;1.00;;
72920;SDS011;61064;51.654;5.476;2023-07-20T13:08:00;3.63;;;0.75;;
72920;SDS011;61064;51.654;5.476;2023-07-20T13:10:26;3.37;;;0.90;;
72920;SDS011;61064;51.654;5.476;2023-07-20T13:12:52;4.45;;;1.10;;
72920;SDS011;61064;51.654;5.476;2023-07-20T13:15:18;6.10;;;0.98;;
72920;SDS011;61064;51.654;5.476;2023-07-20T13:17:44;3.67;;;1.07;;
72920;SDS011;61064;51.654;5.476;2023-07-20T13:20:10;4.15;;;1.00;;
72920;SDS011;61064;51.654;5.476;2023-07-20T13:22:37;4.30;;;0.90;;
72920;SDS011;61064;51.654;5.476;2023-07-20T13:25:03;4.45;;;1.38;;
72920;SDS011;61064;51.654;5.476;2023-07-20T13:27:29;5.40;;;1.48;;
72920;SDS011;61064;51.654;5.476;2023-07-20T13:29:56;4.75;;;1.65;;
72920;SDS011;61064;51.654;5.476;2023-07-20T13:32:22;5.63;;;1.80;;
72920;SDS011;61064;51.654;5.476;2023-07-20T13:34:48;5.18;;;1.42;;
72920;SDS011;61064;51.654;5.476;2023-07-20T13:37:14;3.90;;;1.20;;
72920;SDS011;61064;51.654;5.476;2023-07-20T13:39:39;5.07;;;1.70;;
72920;SDS011;61064;51.654;5.476;2023-07-20T13:42:05;5.07;;;1.33;;
72920;SDS011;61064;51.654;5.476;2023-07-20T13:44:31;4.75;;;1.30;;
72920;SDS011;61064;51.654;5.476;2023-07-20T13:46:57;5.70;;;1.20;;
72920;SDS011;61064;51.654;5.476;2023-07-20T13:49:22;4.13;;;0.90;;
72920;SDS011;61064;51.654;5.476;2023-07-20T13:51:48;3.50;;;0.97;;
72920;SDS011;61064;51.654;5.476;2023-07-20T13:54:13;3.60;;;0.93;;
72920;SDS011;61064;51.654;5.476;2023-07-20T13:56:40;3.13;;;0.70;;
72920;SDS011;61064;51.654;5.476;2023-07-20T13:59:05;6.53;;;3.17;;
72920;SDS011;61064;51.654;5.476;2023-07-20T14:01:31;8.87;;;3.77;;
72920;SDS011;61064;51.654;5.476;2023-07-20T14:03:59;5.00;;;1.10;;
72920;SDS011;61064;51.654;5.476;2023-07-20T14:06:24;3.53;;;1.00;;
72920;SDS011;61064;51.654;5.476;2023-07-20T14:08:50;3.47;;;1.00;;
72920;SDS011;61064;51.654;5.476;2023-07-20T14:11:15;4.18;;;1.13;;
72920;SDS011;61064;51.654;5.476;2023-07-20T14:13:41;3.50;;;1.10;;
72920;SDS011;61064;51.654;5.476;2023-07-20T14:16:07;5.28;;;1.10;;
72920;SDS011;61064;51.654;5.476;2023-07-20T14:18:36;4.73;;;1.13;;
72920;SDS011;61064;51.654;5.476;2023-07-20T14:21:01;4.75;;;1.20;;
72920;SDS011;61064;51.654;5.476;2023-07-20T14:23:28;3.85;;;1.10;;
72920;SDS011;61064;51.654;5.476;2023-07-20T14:25:54;5.10;;;1.20;;
72920;SDS011;61064;51.654;5.476;2023-07-20T14:28:19;4.00;;;1.03;;
72920;SDS011;61064;51.654;5.476;2023-07-20T14:30:45;4.90;;;1.17;;
72920;SDS011;61064;51.654;5.476;2023-07-20T14:33:11;3.83;;;1.10;;
72920;SDS011;61064;51.654;5.476;2023-07-20T14:35:36;3.83;;;1.00;;
72920;SDS011;61064;51.654;5.476;2023-07-20T14:38:04;4.65;;;0.90;;
72920;SDS011;61064;51.654;5.476;2023-07-20T14:40:30;5.73;;;1.40;;
72920;SDS011;61064;51.654;5.476;2023-07-20T14:42:56;4.30;;;1.05;;
72920;SDS011;61064;51.654;5.476;2023-07-20T14:45:27;3.70;;;0.97;;
72920;SDS011;61064;51.654;5.476;2023-07-20T14:47:53;4.13;;;0.95;;